sensor_id;sensor_type;location;lat;lon;timestamp;P1;durP1;ratioP1;P2;durP2;ratioP2
40367;SDS011;26075;43.320;21.920;2023-03-01T00:11:27;40.72;;;25.40;;
40367;SDS011;26075;43.320;21.920;2023-03-01T00:16:36;44.42;;;27.13;;
40367;SDS011;26075;43.320;21.920;2023-03-01T00:21:39;41.65;;;26.50;;
40367;SDS011;26075;43.320;21.920;2023-03-01T00:26:40;46.40;;;29.20;;
40367;SDS011;26075;43.320;21.920;2023-03-01T00:31:40;48.95;;;28.52;;
40367;SDS011;26075;43.320;21.920;2023-03-01T00:36:41;53.65;;;29.80;;
40367;SDS011;26075;43.320;21.920;2023-03-01T00:41:42;52.97;;;28.58;;
40367;SDS011;26075;43.320;21.920;2023-03-01T00:46:43;48.58;;;28.08;;
40367;SDS011;26075;43.320;21.920;2023-03-01T00:51:44;40.80;;;26.65;;
40367;SDS011;26075;43.320;21.920;2023-03-01T01:13:39;42.00;;;24.23;;
40367;SDS011;26075;43.320;21.920;2023-03-01T01:18:40;36.28;;;21.67;;
40367;SDS011;26075;43.320;21.920;2023-03-01T01:23:41;38.78;;;23.38;;
40367;SDS011;26075;43.320;21.920;2023-03-01T01:28:45;38.30;;;23.98;;
40367;SDS011;26075;43.320;21.920;2023-03-01T01:33:47;33.70;;;20.35;;
40367;SDS011;26075;43.320;21.920;2023-03-01T01:50:09;29.30;;;17.53;;
40367;SDS011;26075;43.320;21.920;2023-03-01T01:55:19;25.88;;;15.52;;
40367;SDS011;26075;43.320;21.920;2023-03-01T02:00:25;26.08;;;17.38;;
40367;SDS011;26075;43.320;21.920;2023-03-01T02:11:24;30.67;;;17.80;;
40367;SDS011;26075;43.320;21.920;2023-03-01T02:16:27;30.42;;;18.05;;
40367;SDS011;26075;43.320;21.920;2023-03-01T02:27:13;28.65;;;16.58;;
40367;SDS011;26075;43.320;21.920;2023-03-01T02:32:16;22.98;;;14.63;;
40367;SDS011;26075;43.320;21.920;2023-03-01T02:37:24;23.45;;;15.52;;
40367;SDS011;26075;43.320;21.920;2023-03-01T02:42:30;24.95;;;14.85;;
40367;SDS011;26075;43.320;21.920;2023-03-01T02:47:35;24.27;;;15.10;;
40367;SDS011;26075;43.320;21.920;2023-03-01T03:03:43;22.35;;;12.77;;
40367;SDS011;26075;43.320;21.920;2023-03-01T03:08:44;20.02;;;12.68;;
40367;SDS011;26075;43.320;21.920;2023-03-01T03:13:45;15.43;;;8.70;;
40367;SDS011;26075;43.320;21.920;2023-03-01T03:18:47;15.57;;;7.80;;
40367;SDS011;26075;43.320;21.920;2023-03-01T03:23:48;9.00;;;4.60;;
40367;SDS011;26075;43.320;21.920;2023-03-01T03:28:49;9.32;;;4.18;;
40367;SDS011;26075;43.320;21.920;2023-03-01T03:33:50;4.97;;;3.17;;
40367;SDS011;26075;43.320;21.920;2023-03-01T03:50:13;4.50;;;3.08;;
40367;SDS011;26075;43.320;21.920;2023-03-01T03:55:15;5.68;;;3.22;;
40367;SDS011;26075;43.320;21.920;2023-03-01T04:00:20;7.05;;;3.55;;
40367;SDS011;26075;43.320;21.920;2023-03-01T04:05:21;6.70;;;4.28;;
40367;SDS011;26075;43.320;21.920;2023-03-01T04:10:23;6.22;;;3.60;;
40367;SDS011;26075;43.320;21.920;2023-03-01T04:15:24;5.97;;;3.45;;
40367;SDS011;26075;43.320;21.920;2023-03-01T04:20:28;6.25;;;3.72;;
40367;SDS011;26075;43.320;21.920;2023-03-01T04:31:11;8.40;;;4.63;;
40367;SDS011;26075;43.320;21.920;2023-03-01T04:36:14;8.95;;;4.90;;
40367;SDS011;26075;43.320;21.920;2023-03-01T04:41:17;10.35;;;4.60;;
40367;SDS011;26075;43.320;21.920;2023-03-01T04:52:16;6.97;;;4.18;;
40367;SDS011;26075;43.320;21.920;2023-03-01T04:57:17;8.77;;;4.72;;
40367;SDS011;26075;43.320;21.920;2023-03-01T05:02:18;9.98;;;6.50;;
40367;SDS011;26075;43.320;21.920;2023-03-01T05:07:19;9.00;;;5.90;;
40367;SDS011;26075;43.320;21.920;2023-03-01T05:12:36;16.95;;;8.70;;
40367;SDS011;26075;43.320;21.920;2023-03-01T05:17:37;17.00;;;10.02;;
40367;SDS011;26075;43.320;21.920;2023-03-01T05:22:37;14.60;;;9.35;;
40367;SDS011;26075;43.320;21.920;2023-03-01T05:27:39;17.50;;;9.52;;
40367;SDS011;26075;43.320;21.920;2023-03-01T05:43:37;14.00;;;7.53;;
40367;SDS011;26075;43.320;21.920;2023-03-01T05:48:38;12.10;;;8.43;;
40367;SDS011;26075;43.320;21.920;2023-03-01T05:53:40;13.93;;;5.55;;
40367;SDS011;26075;43.320;21.920;2023-03-01T05:58:41;9.98;;;6.28;;
40367;SDS011;26075;43.320;21.920;2023-03-01T06:03:43;19.08;;;8.38;;
40367;SDS011;26075;43.320;21.920;2023-03-01T06:08:43;12.93;;;7.45;;
40367;SDS011;26075;43.320;21.920;2023-03-01T06:13:44;10.30;;;6.63;;
40367;SDS011;26075;43.320;21.920;2023-03-01T06:18:54;8.25;;;5.43;;
40367;SDS011;26075;43.320;21.920;2023-03-01T06:23:54;10.45;;;6.00;;
40367;SDS011;26075;43.320;21.920;2023-03-01T06:28:55;13.20;;;7.60;;
40367;SDS011;26075;43.320;21.920;2023-03-01T06:33:56;18.65;;;10.88;;
40367;SDS011;26075;43.320;21.920;2023-03-01T06:38:56;20.55;;;10.77;;
40367;SDS011;26075;43.320;21.920;2023-03-01T06:44:01;16.52;;;9.20;;
40367;SDS011;26075;43.320;21.920;2023-03-01T06:49:02;15.63;;;9.60;;
40367;SDS011;26075;43.320;21.920;2023-03-01T06:54:19;16.00;;;9.87;;
40367;SDS011;26075;43.320;21.920;2023-03-01T06:59:22;21.92;;;9.63;;
40367;SDS011;26075;43.320;21.920;2023-03-01T07:04:22;13.40;;;6.38;;
40367;SDS011;26075;43.320;21.920;2023-03-01T07:09:25;11.07;;;5.43;;
40367;SDS011;26075;43.320;21.920;2023-03-01T07:14:26;8.43;;;4.25;;
40367;SDS011;26075;43.320;21.920;2023-03-01T07:25:24;12.23;;;6.57;;
40367;SDS011;26075;43.320;21.920;2023-03-01T07:30:25;13.43;;;8.57;;
40367;SDS011;26075;43.320;21.920;2023-03-01T07:35:28;18.55;;;11.88;;
40367;SDS011;26075;43.320;21.920;2023-03-01T07:40:28;22.48;;;13.43;;
40367;SDS011;26075;43.320;21.920;2023-03-01T07:45:29;26.63;;;13.63;;
40367;SDS011;26075;43.320;21.920;2023-03-01T07:50:30;18.08;;;10.27;;
40367;SDS011;26075;43.320;21.920;2023-03-01T07:55:31;23.52;;;9.43;;
40367;SDS011;26075;43.320;21.920;2023-03-01T08:00:32;7.63;;;4.75;;
40367;SDS011;26075;43.320;21.920;2023-03-01T08:05:33;10.00;;;4.65;;
40367;SDS011;26075;43.320;21.920;2023-03-01T08:27:30;8.77;;;3.92;;
40367;SDS011;26075;43.320;21.920;2023-03-01T08:32:37;6.05;;;3.58;;
40367;SDS011;26075;43.320;21.920;2023-03-01T08:37:38;9.10;;;4.60;;
40367;SDS011;26075;43.320;21.920;2023-03-01T08:42:39;10.30;;;5.47;;
40367;SDS011;26075;43.320;21.920;2023-03-01T08:47:40;9.93;;;5.15;;
40367;SDS011;26075;43.320;21.920;2023-03-01T08:52:41;9.57;;;4.05;;
40367;SDS011;26075;43.320;21.920;2023-03-01T08:57:42;11.02;;;4.50;;
40367;SDS011;26075;43.320;21.920;2023-03-01T09:03:01;9.40;;;4.68;;
40367;SDS011;26075;43.320;21.920;2023-03-01T09:08:02;7.18;;;3.95;;
40367;SDS011;26075;43.320;21.920;2023-03-01T09:13:07;6.30;;;3.67;;
40367;SDS011;26075;43.320;21.920;2023-03-01T09:18:08;5.13;;;3.43;;
40367;SDS011;26075;43.320;21.920;2023-03-01T09:23:09;9.50;;;4.95;;
40367;SDS011;26075;43.320;21.920;2023-03-01T09:28:09;9.75;;;4.70;;
40367;SDS011;26075;43.320;21.920;2023-03-01T09:33:10;9.60;;;5.00;;
40367;SDS011;26075;43.320;21.920;2023-03-01T09:38:14;6.07;;;4.35;;
40367;SDS011;26075;43.320;21.920;2023-03-01T09:43:23;10.77;;;4.97;;
40367;SDS011;26075;43.320;21.920;2023-03-01T09:48:50;7.80;;;4.57;;
40367;SDS011;26075;43.320;21.920;2023-03-01T09:53:55;10.00;;;4.43;;
40367;SDS011;26075;43.320;21.920;2023-03-01T10:04:57;13.85;;;4.68;;
40367;SDS011;26075;43.320;21.920;2023-03-01T10:10:36;7.85;;;3.95;;
40367;SDS011;26075;43.320;21.920;2023-03-01T10:15:45;6.88;;;4.20;;
40367;SDS011;26075;43.320;21.920;2023-03-01T10:20:58;10.85;;;4.25;;
40367;SDS011;26075;43.320;21.920;2023-03-01T10:26:11;6.78;;;4.32;;
40367;SDS011;26075;43.320;21.920;2023-03-01T10:36:38;19.88;;;5.35;;
40367;SDS011;26075;43.320;21.920;2023-03-01T10:42:02;7.05;;;4.20;;
40367;SDS011;26075;43.320;21.920;2023-03-01T10:47:04;8.20;;;4.55;;
40367;SDS011;26075;43.320;21.920;2023-03-01T10:58:18;13.75;;;6.43;;
40367;SDS011;26075;43.320;21.920;2023-03-01T11:03:27;10.88;;;4.10;;
40367;SDS011;26075;43.320;21.920;2023-03-01T11:08:32;6.75;;;4.45;;
40367;SDS011;26075;43.320;21.920;2023-03-01T11:13:33;13.07;;;5.20;;
40367;SDS011;26075;43.320;21.920;2023-03-01T11:18:45;16.65;;;5.75;;
40367;SDS011;26075;43.320;21.920;2023-03-01T11:23:57;8.88;;;4.97;;
40367;SDS011;26075;43.320;21.920;2023-03-01T11:29:02;8.43;;;4.20;;
40367;SDS011;26075;43.320;21.920;2023-03-01T11:34:09;7.15;;;4.13;;
40367;SDS011;26075;43.320;21.920;2023-03-01T11:44:25;8.48;;;4.80;;
40367;SDS011;26075;43.320;21.920;2023-03-01T11:55:12;9.68;;;6.07;;
40367;SDS011;26075;43.320;21.920;2023-03-01T12:17:03;9.65;;;5.20;;
40367;SDS011;26075;43.320;21.920;2023-03-01T12:28:14;8.90;;;5.50;;
40367;SDS011;26075;43.320;21.920;2023-03-01T12:49:38;11.07;;;5.90;;
40367;SDS011;26075;43.320;21.920;2023-03-01T12:54:49;8.30;;;5.63;;
40367;SDS011;26075;43.320;21.920;2023-03-01T13:10:51;10.85;;;6.00;;
40367;SDS011;26075;43.320;21.920;2023-03-01T13:16:16;12.32;;;6.55;;
40367;SDS011;26075;43.320;21.920;2023-03-01T13:21:29;8.73;;;4.88;;
40367;SDS011;26075;43.320;21.920;2023-03-01T13:27:08;12.02;;;5.43;;
40367;SDS011;26075;43.320;21.920;2023-03-01T13:32:06;14.80;;;6.20;;
40367;SDS011;26075;43.320;21.920;2023-03-01T13:37:40;10.63;;;6.30;;
40367;SDS011;26075;43.320;21.920;2023-03-01T13:42:42;10.50;;;6.45;;
40367;SDS011;26075;43.320;21.920;2023-03-01T13:47:48;15.47;;;7.30;;
40367;SDS011;26075;43.320;21.920;2023-03-01T13:53:00;14.73;;;6.15;;
40367;SDS011;26075;43.320;21.920;2023-03-01T13:58:13;7.40;;;5.25;;
40367;SDS011;26075;43.320;21.920;2023-03-01T14:03:25;11.02;;;7.07;;
40367;SDS011;26075;43.320;21.920;2023-03-01T14:08:28;15.40;;;6.75;;
40367;SDS011;26075;43.320;21.920;2023-03-01T14:19:04;10.80;;;7.40;;
40367;SDS011;26075;43.320;21.920;2023-03-01T14:24:22;12.40;;;8.40;;
40367;SDS011;26075;43.320;21.920;2023-03-01T14:29:27;14.85;;;8.52;;
40367;SDS011;26075;43.320;21.920;2023-03-01T14:34:35;13.43;;;7.85;;
40367;SDS011;26075;43.320;21.920;2023-03-01T14:39:36;17.23;;;7.85;;
40367;SDS011;26075;43.320;21.920;2023-03-01T14:44:37;14.57;;;8.68;;
40367;SDS011;26075;43.320;21.920;2023-03-01T14:49:43;14.77;;;8.27;;
40367;SDS011;26075;43.320;21.920;2023-03-01T14:54:48;12.35;;;8.20;;
40367;SDS011;26075;43.320;21.920;2023-03-01T14:59:54;17.70;;;8.98;;
40367;SDS011;26075;43.320;21.920;2023-03-01T15:04:58;17.15;;;8.80;;
40367;SDS011;26075;43.320;21.920;2023-03-01T15:10:04;14.43;;;7.10;;
40367;SDS011;26075;43.320;21.920;2023-03-01T15:15:49;14.70;;;8.00;;
40367;SDS011;26075;43.320;21.920;2023-03-01T15:20:35;9.15;;;6.95;;
40367;SDS011;26075;43.320;21.920;2023-03-01T15:43:01;18.00;;;9.20;;
40367;SDS011;26075;43.320;21.920;2023-03-01T15:48:13;13.60;;;9.23;;
40367;SDS011;26075;43.320;21.920;2023-03-01T15:53:17;12.40;;;7.50;;
40367;SDS011;26075;43.320;21.920;2023-03-01T15:58:19;12.77;;;8.93;;
40367;SDS011;26075;43.320;21.920;2023-03-01T16:03:21;13.82;;;8.30;;
40367;SDS011;26075;43.320;21.920;2023-03-01T16:08:23;16.40;;;8.13;;
40367;SDS011;26075;43.320;21.920;2023-03-01T16:13:23;11.93;;;7.90;;
40367;SDS011;26075;43.320;21.920;2023-03-01T16:18:25;14.98;;;8.68;;
40367;SDS011;26075;43.320;21.920;2023-03-01T16:23:26;22.25;;;10.52;;
40367;SDS011;26075;43.320;21.920;2023-03-01T16:34:10;20.70;;;12.80;;
40367;SDS011;26075;43.320;21.920;2023-03-01T16:39:19;19.77;;;14.27;;
40367;SDS011;26075;43.320;21.920;2023-03-01T16:44:20;20.40;;;12.88;;
40367;SDS011;26075;43.320;21.920;2023-03-01T16:54:53;18.20;;;11.48;;
40367;SDS011;26075;43.320;21.920;2023-03-01T16:59:54;20.92;;;12.82;;
40367;SDS011;26075;43.320;21.920;2023-03-01T17:05:02;20.63;;;14.13;;
40367;SDS011;26075;43.320;21.920;2023-03-01T17:10:04;24.05;;;15.38;;
40367;SDS011;26075;43.320;21.920;2023-03-01T17:15:09;20.67;;;14.88;;
40367;SDS011;26075;43.320;21.920;2023-03-01T17:20:11;24.85;;;14.35;;
40367;SDS011;26075;43.320;21.920;2023-03-01T17:25:13;23.83;;;14.43;;
40367;SDS011;26075;43.320;21.920;2023-03-01T17:30:14;27.38;;;12.77;;
40367;SDS011;26075;43.320;21.920;2023-03-01T17:35:16;17.35;;;11.63;;
40367;SDS011;26075;43.320;21.920;2023-03-01T17:40:16;18.73;;;12.95;;
40367;SDS011;26075;43.320;21.920;2023-03-01T17:45:17;17.83;;;11.80;;
40367;SDS011;26075;43.320;21.920;2023-03-01T17:50:18;23.40;;;13.85;;
40367;SDS011;26075;43.320;21.920;2023-03-01T17:55:19;29.60;;;14.98;;
40367;SDS011;26075;43.320;21.920;2023-03-01T18:05:50;19.00;;;12.85;;
40367;SDS011;26075;43.320;21.920;2023-03-01T18:10:57;14.93;;;10.05;;
40367;SDS011;26075;43.320;21.920;2023-03-01T18:15:58;15.68;;;9.18;;
40367;SDS011;26075;43.320;21.920;2023-03-01T18:27:03;10.75;;;7.90;;
40367;SDS011;26075;43.320;21.920;2023-03-01T18:32:10;12.95;;;8.48;;
40367;SDS011;26075;43.320;21.920;2023-03-01T18:37:24;11.10;;;7.95;;
40367;SDS011;26075;43.320;21.920;2023-03-01T18:42:24;13.57;;;8.23;;
40367;SDS011;26075;43.320;21.920;2023-03-01T18:52:56;13.88;;;8.82;;
40367;SDS011;26075;43.320;21.920;2023-03-01T19:14:55;15.43;;;9.77;;
40367;SDS011;26075;43.320;21.920;2023-03-01T19:19:56;12.65;;;9.73;;
40367;SDS011;26075;43.320;21.920;2023-03-01T19:24:57;14.80;;;10.00;;
40367;SDS011;26075;43.320;21.920;2023-03-01T19:30:14;16.10;;;10.30;;
40367;SDS011;26075;43.320;21.920;2023-03-01T19:35:15;19.25;;;10.70;;
40367;SDS011;26075;43.320;21.920;2023-03-01T19:40:29;15.40;;;11.07;;
40367;SDS011;26075;43.320;21.920;2023-03-01T19:45:31;17.20;;;11.30;;
40367;SDS011;26075;43.320;21.920;2023-03-01T19:50:32;20.60;;;11.25;;
40367;SDS011;26075;43.320;21.920;2023-03-01T19:55:38;22.25;;;12.10;;
40367;SDS011;26075;43.320;21.920;2023-03-01T20:00:39;17.73;;;11.18;;
40367;SDS011;26075;43.320;21.920;2023-03-01T20:05:44;15.83;;;10.50;;
40367;SDS011;26075;43.320;21.920;2023-03-01T20:10:45;15.05;;;10.02;;
40367;SDS011;26075;43.320;21.920;2023-03-01T20:27:13;17.42;;;11.35;;
40367;SDS011;26075;43.320;21.920;2023-03-01T20:38:11;19.60;;;12.50;;
40367;SDS011;26075;43.320;21.920;2023-03-01T20:43:12;14.95;;;8.80;;
40367;SDS011;26075;43.320;21.920;2023-03-01T20:48:13;11.98;;;8.05;;
40367;SDS011;26075;43.320;21.920;2023-03-01T20:53:14;17.17;;;9.63;;
40367;SDS011;26075;43.320;21.920;2023-03-01T20:58:15;15.18;;;9.60;;
40367;SDS011;26075;43.320;21.920;2023-03-01T21:03:16;16.65;;;10.68;;
40367;SDS011;26075;43.320;21.920;2023-03-01T21:08:17;16.00;;;9.88;;
40367;SDS011;26075;43.320;21.920;2023-03-01T21:13:18;23.75;;;13.02;;
40367;SDS011;26075;43.320;21.920;2023-03-01T21:18:19;22.83;;;16.05;;
40367;SDS011;26075;43.320;21.920;2023-03-01T21:23:20;27.75;;;18.63;;
40367;SDS011;26075;43.320;21.920;2023-03-01T21:28:21;23.33;;;15.15;;
40367;SDS011;26075;43.320;21.920;2023-03-01T21:33:22;24.85;;;12.68;;
40367;SDS011;26075;43.320;21.920;2023-03-01T21:44:20;18.80;;;11.05;;
40367;SDS011;26075;43.320;21.920;2023-03-01T21:54:49;28.43;;;12.83;;
40367;SDS011;26075;43.320;21.920;2023-03-01T22:05:26;24.38;;;13.73;;
40367;SDS011;26075;43.320;21.920;2023-03-01T22:10:28;21.05;;;12.68;;
40367;SDS011;26075;43.320;21.920;2023-03-01T22:15:29;21.40;;;14.20;;
40367;SDS011;26075;43.320;21.920;2023-03-01T22:20:30;33.67;;;22.00;;
40367;SDS011;26075;43.320;21.920;2023-03-01T22:25:31;27.77;;;17.88;;
40367;SDS011;26075;43.320;21.920;2023-03-01T22:30:32;20.10;;;13.32;;
40367;SDS011;26075;43.320;21.920;2023-03-01T22:41:33;16.70;;;10.60;;
40367;SDS011;26075;43.320;21.920;2023-03-01T22:46:36;14.93;;;9.55;;
40367;SDS011;26075;43.320;21.920;2023-03-01T22:51:54;16.95;;;10.30;;
40367;SDS011;26075;43.320;21.920;2023-03-01T22:57:05;12.00;;;7.60;;
40367;SDS011;26075;43.320;21.920;2023-03-01T23:02:08;11.13;;;7.15;;
40367;SDS011;26075;43.320;21.920;2023-03-01T23:13:05;10.57;;;7.18;;
40367;SDS011;26075;43.320;21.920;2023-03-01T23:18:07;11.68;;;6.95;;
40367;SDS011;26075;43.320;21.920;2023-03-01T23:23:07;10.77;;;6.68;;
40367;SDS011;26075;43.320;21.920;2023-03-01T23:28:08;10.20;;;6.07;;
40367;SDS011;26075;43.320;21.920;2023-03-01T23:33:09;11.02;;;6.70;;
40367;SDS011;26075;43.320;21.920;2023-03-01T23:38:10;10.48;;;5.90;;
40367;SDS011;26075;43.320;21.920;2023-03-01T23:43:11;10.20;;;6.07;;
40367;SDS011;26075;43.320;21.920;2023-03-01T23:48:12;11.60;;;6.07;;
40367;SDS011;26075;43.320;21.920;2023-03-01T23:53:17;11.45;;;6.70;;
40367;SDS011;26075;43.320;21.920;2023-03-01T23:58:19;11.07;;;6.35;;
